Time;durP1;ratioP1;P1;durP2;ratioP2;P2;SDS_P1;SDS_P2;PMS_P1;PMS_P2;Temp;Humidity;BMP_temperature;BMP_pressure;BME280_temperature;BME280_humidity;BME280_pressure;Samples;Min_cycle;Max_cycle;Signal;HPM_P1;HPM_P2
2022/08/30 00:01:01;;;;;;;13.10;5.28;;;18.30;99.90;;;;;;4993300;28;20506;-49
2022/08/30 00:01:55;;;;;;;10.18;5.72;;;18.30;99.90;;;;;;4992775;28;20050;-50
2022/08/30 00:04:21;;;;;;;12.30;5.72;;;18.30;99.90;;;;;;4992979;28;20042;-50
2022/08/30 00:06:47;;;;;;;12.93;5.90;;;18.30;99.90;;;;;;4993075;28;20474;-50
2022/08/30 00:09:13;;;;;;;17.33;5.82;;;18.40;99.90;;;;;;4993310;28;20031;-50
2022/08/30 00:11:39;;;;;;;10.20;6.18;;;18.50;99.90;;;;;;4992988;28;20599;-50
2022/08/30 00:14:05;;;;;;;14.82;5.65;;;18.50;99.90;;;;;;4993040;28;20399;-50
2022/08/30 00:16:31;;;;;;;16.60;5.78;;;18.50;99.90;;;;;;4991498;28;20092;-49
2022/08/30 00:18:57;;;;;;;14.75;5.75;;;18.50;99.90;;;;;;4993079;28;20539;-51
2022/08/30 00:21:25;;;;;;;10.45;5.63;;;18.60;99.90;;;;;;4992579;28;20034;-51
2022/08/30 00:23:50;;;;;;;14.63;6.82;;;18.50;99.90;;;;;;4992770;28;20406;-50
2022/08/30 00:26:16;;;;;;;14.25;5.95;;;18.60;99.90;;;;;;4992585;28;20113;-50
2022/08/30 00:28:41;;;;;;;12.48;5.90;;;18.60;99.90;;;;;;4992507;28;20113;-49
2022/08/30 00:31:07;;;;;;;11.95;6.13;;;18.60;99.90;;;;;;4992719;28;20140;-50
2022/08/30 00:33:33;;;;;;;14.65;6.20;;;18.70;99.90;;;;;;4992711;28;20387;-49
2022/08/30 00:36:00;;;;;;;11.00;6.35;;;18.70;99.90;;;;;;4992059;28;20022;-50
2022/08/30 00:38:26;;;;;;;16.55;6.63;;;18.70;99.90;;;;;;4992673;28;20399;-50
2022/08/30 00:40:52;;;;;;;12.48;6.38;;;18.70;99.90;;;;;;4991671;28;20032;-49
2022/08/30 00:43:24;;;;;;;11.32;6.68;;;18.60;99.90;;;;;;4992277;28;20488;-50
2022/08/30 00:45:50;;;;;;;;;;;18.60;99.90;;;;;;4992878;28;20041;-50
2022/08/30 00:48:16;;;;;;;11.85;6.45;;;18.50;99.90;;;;;;4992506;28;19914;-50
2022/08/30 00:50:46;;;;;;;12.15;7.13;;;18.50;99.90;;;;;;4992386;28;20027;-50
2022/08/30 00:53:20;;;;;;;11.80;6.82;;;18.50;99.90;;;;;;4992580;28;20097;-49
2022/08/30 00:55:47;;;;;;;11.07;7.25;;;18.50;99.90;;;;;;4992150;28;20049;-50
2022/08/30 00:58:21;;;;;;;14.45;6.90;;;18.40;99.90;;;;;;4992847;28;20031;-50
2022/08/30 01:00:50;;;;;;;13.65;7.57;;;18.40;99.90;;;;;;4992052;28;20507;-50
2022/08/30 01:03:16;;;;;;;13.25;7.25;;;18.40;99.90;;;;;;4991833;28;20031;-50
2022/08/30 01:05:42;;;;;;;13.20;7.30;;;18.30;99.90;;;;;;4992235;28;20030;-50
2022/08/30 01:08:08;;;;;;;14.77;6.95;;;18.40;99.90;;;;;;4991991;28;20110;-50
2022/08/30 01:10:37;;;;;;;15.82;7.22;;;18.40;99.90;;;;;;4991797;28;20030;-50
2022/08/30 01:13:03;;;;;;;17.05;8.05;;;18.30;99.90;;;;;;4992147;28;20038;-50
2022/08/30 01:15:31;;;;;;;17.25;8.10;;;18.30;99.90;;;;;;4992113;28;20084;-50
2022/08/30 01:17:57;;;;;;;15.07;8.13;;;18.20;99.90;;;;;;4992460;28;20117;-50
2022/08/30 01:20:31;;;;;;;16.65;8.25;;;18.20;99.90;;;;;;4992023;28;20022;-50
2022/08/30 01:23:13;;;;;;;18.17;7.88;;;18.20;99.90;;;;;;4991919;28;20030;-50
2022/08/30 01:25:41;;;;;;;13.73;7.57;;;18.20;99.90;;;;;;4992421;28;20037;-50
2022/08/30 01:28:09;;;;;;;18.00;8.57;;;18.20;99.90;;;;;;4992068;28;20085;-50
2022/08/30 01:30:38;;;;;;;19.95;8.88;;;18.20;99.90;;;;;;4991704;28;20376;-49
2022/08/30 01:33:05;;;;;;;19.92;8.60;;;18.20;99.90;;;;;;4991976;28;20042;-50
2022/08/30 01:35:44;;;;;;;13.68;7.80;;;18.20;99.90;;;;;;4991658;28;20040;-49
2022/08/30 01:38:12;;;;;;;15.38;8.75;;;18.20;99.90;;;;;;4991973;28;20491;-48
2022/08/30 01:40:39;;;;;;;15.93;8.55;;;18.10;99.90;;;;;;4991861;28;20105;-49
2022/08/30 01:43:06;;;;;;;15.95;8.32;;;18.10;99.90;;;;;;4990502;28;20088;-50
2022/08/30 01:45:31;;;;;;;12.70;8.20;;;18.00;99.90;;;;;;4991610;28;20030;-50
2022/08/30 01:47:57;;;;;;;17.27;8.75;;;18.00;99.90;;;;;;4991618;28;20105;-49
2022/08/30 01:50:23;;;;;;;19.60;9.23;;;17.90;99.90;;;;;;4992176;28;20415;-50
2022/08/30 01:52:52;;;;;;;15.98;8.38;;;17.90;99.90;;;;;;4993122;28;20483;-49
2022/08/30 01:55:18;;;;;;;17.50;9.13;;;17.90;99.90;;;;;;4995252;28;20519;-49
2022/08/30 01:57:44;;;;;;;16.85;8.73;;;17.90;99.90;;;;;;4995840;28;20038;-49
2022/08/30 02:00:10;;;;;;;15.13;8.52;;;17.90;99.90;;;;;;4995393;28;20463;-50
2022/08/30 02:02:35;;;;;;;12.57;8.00;;;17.90;99.90;;;;;;4995271;28;20026;-49
2022/08/30 02:05:01;;;;;;;14.35;8.43;;;17.90;99.90;;;;;;4995260;28;20030;-49
2022/08/30 02:07:27;;;;;;;16.50;9.40;;;17.90;99.90;;;;;;4995511;28;20031;-51
2022/08/30 02:09:53;;;;;;;14.23;9.00;;;17.80;99.90;;;;;;4995486;28;20038;-49
2022/08/30 02:12:19;;;;;;;17.50;8.80;;;17.80;99.90;;;;;;4995038;28;20045;-50
2022/08/30 02:14:45;;;;;;;14.70;9.50;;;17.70;99.90;;;;;;4995226;28;20109;-50
2022/08/30 02:17:12;;;;;;;14.65;9.07;;;17.60;99.90;;;;;;4995284;28;20173;-49
2022/08/30 02:19:38;;;;;;;18.20;9.52;;;17.60;99.90;;;;;;4995305;28;20031;-50
2022/08/30 02:22:05;;;;;;;18.10;9.85;;;17.70;99.90;;;;;;4994956;28;20031;-50
2022/08/30 02:24:31;;;;;;;14.85;9.48;;;17.70;99.90;;;;;;4994953;28;20529;-49
2022/08/30 02:26:56;;;;;;;13.60;8.75;;;17.70;99.90;;;;;;4994658;28;20030;-49
2022/08/30 02:29:23;;;;;;;16.92;10.02;;;17.60;99.90;;;;;;4995548;28;20038;-50
2022/08/30 02:31:49;;;;;;;17.17;10.02;;;17.60;99.90;;;;;;4994649;28;20073;-50
2022/08/30 02:34:15;;;;;;;15.35;9.55;;;17.60;99.90;;;;;;4994971;28;20542;-51
2022/08/30 02:36:41;;;;;;;18.05;9.75;;;17.60;99.90;;;;;;4994603;28;20058;-49
2022/08/30 02:39:09;;;;;;;17.38;9.20;;;17.50;99.90;;;;;;4994771;28;20034;-49
2022/08/30 02:41:34;;;;;;;18.13;9.63;;;17.50;99.90;;;;;;4994352;28;20030;-49
2022/08/30 02:44:00;;;;;;;18.38;10.00;;;17.50;99.90;;;;;;4994680;28;20486;-49
2022/08/30 02:46:27;;;;;;;21.35;9.13;;;17.50;99.90;;;;;;4994378;28;20480;-50
2022/08/30 02:48:53;;;;;;;16.23;9.50;;;17.50;99.90;;;;;;4994727;28;20435;-50
2022/08/30 02:51:19;;;;;;;19.30;10.77;;;17.60;99.90;;;;;;4994451;28;20023;-50
2022/08/30 02:53:44;;;;;;;15.52;9.73;;;17.60;99.90;;;;;;4993090;28;20054;-50
2022/08/30 02:56:11;;;;;;;14.93;9.55;;;17.60;99.90;;;;;;4994234;28;20400;-50
2022/08/30 02:58:37;;;;;;;14.82;9.48;;;17.60;99.90;;;;;;4994502;28;20026;-51
2022/08/30 03:01:04;;;;;;;16.17;9.60;;;17.50;99.90;;;;;;4994076;28;20102;-49
2022/08/30 03:03:30;;;;;;;16.92;10.05;;;17.50;99.90;;;;;;4994001;28;20034;-49
2022/08/30 03:05:57;;;;;;;20.35;9.77;;;17.60;99.90;;;;;;4993898;28;20483;-57
2022/08/30 03:08:23;;;;;;;13.75;9.70;;;17.40;99.90;;;;;;4994359;28;20034;-49
2022/08/30 03:10:49;;;;;;;18.83;9.63;;;17.50;99.90;;;;;;4994102;28;20038;-50
2022/08/30 03:13:15;;;;;;;16.27;9.13;;;17.50;99.90;;;;;;4993812;28;20121;-49
2022/08/30 03:15:40;;;;;;;17.05;9.45;;;17.50;99.90;;;;;;4994203;28;20105;-50
2022/08/30 03:18:07;;;;;;;16.42;9.68;;;17.50;99.90;;;;;;4994346;28;20033;-50
2022/08/30 03:20:34;;;;;;;16.48;9.45;;;17.60;99.90;;;;;;4993836;28;20045;-50
2022/08/30 03:22:59;;;;;;;17.50;9.75;;;17.60;99.90;;;;;;4994012;28;20034;-49
2022/08/30 03:25:25;;;;;;;19.17;9.95;;;17.60;99.90;;;;;;4993718;28;20027;-49
2022/08/30 03:27:51;;;;;;;15.65;9.05;;;17.70;99.90;;;;;;4993800;28;20026;-50
2022/08/30 03:30:18;;;;;;;17.02;9.60;;;17.70;99.90;;;;;;4994007;28;20022;-49
2022/08/30 03:32:44;;;;;;;16.15;9.40;;;17.70;99.90;;;;;;4993640;28;20038;-49
2022/08/30 03:35:11;;;;;;;17.52;9.30;;;17.60;99.90;;;;;;4993986;28;20053;-50
2022/08/30 03:37:37;;;;;;;24.23;10.00;;;17.60;99.90;;;;;;4993511;28;20184;-50
2022/08/30 03:40:04;;;;;;;13.13;8.40;;;17.60;99.90;;;;;;4993918;28;20589;-49
2022/08/30 03:42:30;;;;;;;14.90;9.25;;;17.60;99.90;;;;;;4993810;28;20035;-50
2022/08/30 03:44:55;;;;;;;16.58;9.38;;;17.50;99.90;;;;;;4993503;28;20361;-50
2022/08/30 03:47:21;;;;;;;15.00;9.32;;;17.60;99.90;;;;;;4993787;28;20612;-49
2022/08/30 03:49:47;;;;;;;16.73;9.27;;;17.60;99.90;;;;;;4993517;28;20022;-49
2022/08/30 03:52:12;;;;;;;19.20;9.88;;;17.60;99.90;;;;;;4993251;28;20121;-50
2022/08/30 03:54:39;;;;;;;16.73;9.73;;;17.50;99.90;;;;;;4993217;28;20042;-50
2022/08/30 03:57:04;;;;;;;15.80;9.25;;;17.50;99.90;;;;;;4992973;28;20050;-50
2022/08/30 03:59:30;;;;;;;16.70;9.25;;;17.50;99.90;;;;;;4993406;28;20022;-49
2022/08/30 04:01:57;;;;;;;16.38;9.23;;;17.60;99.90;;;;;;4992942;28;20042;-48
2022/08/30 04:04:24;;;;;;;15.60;9.02;;;17.60;99.90;;;;;;4992786;28;20037;-48
2022/08/30 04:06:50;;;;;;;17.83;8.98;;;17.60;99.90;;;;;;4992913;28;20037;-48
2022/08/30 04:09:16;;;;;;;17.90;9.38;;;17.60;99.90;;;;;;4993164;28;20473;-49
2022/08/30 04:11:42;;;;;;;17.52;9.85;;;17.60;99.90;;;;;;4992812;28;20073;-49
2022/08/30 04:14:08;;;;;;;15.43;9.02;;;17.50;99.90;;;;;;4993128;28;20058;-49
2022/08/30 04:16:34;;;;;;;16.55;9.52;;;17.60;99.90;;;;;;4992651;28;20042;-49
2022/08/30 04:18:59;;;;;;;16.20;8.88;;;17.60;99.90;;;;;;4993209;28;20022;-49
2022/08/30 04:21:25;;;;;;;18.52;9.88;;;17.60;99.90;;;;;;4992916;28;20058;-49
2022/08/30 04:23:50;;;;;;;14.80;9.10;;;17.50;99.90;;;;;;4992790;28;20031;-49
2022/08/30 04:26:19;;;;;;;18.08;9.30;;;17.50;99.90;;;;;;4992943;28;20073;-49
2022/08/30 04:28:44;;;;;;;18.08;9.75;;;17.50;99.90;;;;;;4992774;28;20030;-50
2022/08/30 04:31:14;;;;;;;16.67;10.20;;;17.50;99.90;;;;;;4992607;28;20018;-51
2022/08/30 04:33:41;;;;;;;20.42;9.15;;;17.40;99.90;;;;;;4992879;28;20583;-48
2022/08/30 04:36:08;;;;;;;14.23;9.35;;;17.30;99.90;;;;;;4992921;28;20111;-49
2022/08/30 04:38:35;;;;;;;21.60;10.38;;;17.30;99.90;;;;;;4993015;28;20030;-49
2022/08/30 04:41:01;;;;;;;15.57;8.98;;;17.30;99.90;;;;;;4992812;28;20022;-50
2022/08/30 04:43:28;;;;;;;14.48;9.60;;;17.30;99.90;;;;;;4992066;28;20034;-49
2022/08/30 04:45:54;;;;;;;16.73;9.48;;;17.30;99.90;;;;;;4992127;28;20022;-49
2022/08/30 04:48:21;;;;;;;22.65;10.23;;;17.30;99.90;;;;;;4992290;28;20116;-49
2022/08/30 04:50:47;;;;;;;16.70;9.75;;;17.30;99.90;;;;;;4992080;28;20046;-49
2022/08/30 04:53:14;;;;;;;17.73;9.93;;;17.30;99.90;;;;;;4991926;28;20038;-50
2022/08/30 04:55:41;;;;;;;18.45;10.30;;;17.30;99.90;;;;;;4991822;28;20053;-49
2022/08/30 04:58:07;;;;;;;18.50;9.93;;;17.30;99.90;;;;;;4992719;28;20391;-49
2022/08/30 05:00:33;;;;;;;14.45;9.38;;;17.30;99.90;;;;;;4992074;28;20038;-49
2022/08/30 05:02:59;;;;;;;16.80;9.45;;;17.20;99.90;;;;;;4992060;28;20420;-50
2022/08/30 05:05:40;;;;;;;15.27;9.23;;;17.10;99.90;;;;;;4992056;28;20491;-50
2022/08/30 05:08:14;;;;;;;15.15;9.38;;;17.10;99.90;;;;;;4992574;28;20026;-49
2022/08/30 05:10:42;;;;;;;14.63;9.20;;;17.10;99.90;;;;;;4992040;28;20391;-49
2022/08/30 05:13:08;;;;;;;17.65;10.52;;;17.10;99.90;;;;;;4992125;28;20030;-49
2022/08/30 05:15:36;;;;;;;15.48;9.93;;;17.00;99.90;;;;;;4992121;28;20058;-49
2022/08/30 05:18:03;;;;;;;23.05;11.00;;;17.10;99.90;;;;;;4992497;28;20089;-50
2022/08/30 05:20:29;;;;;;;15.52;9.82;;;17.10;99.90;;;;;;4991870;28;20484;-49
2022/08/30 05:22:54;;;;;;;20.10;10.18;;;17.10;99.90;;;;;;4990727;28;20049;-49
2022/08/30 05:25:23;;;;;;;15.15;10.23;;;17.10;99.90;;;;;;4992060;28;20029;-49
2022/08/30 05:27:50;;;;;;;16.85;10.15;;;17.10;99.90;;;;;;4991197;28;20027;-48
2022/08/30 05:30:16;;;;;;;13.90;9.70;;;17.10;99.90;;;;;;4991902;28;20130;-52
2022/08/30 05:32:42;;;;;;;14.30;10.23;;;17.10;99.90;;;;;;4991854;28;20519;-50
2022/08/30 05:35:10;;;;;;;21.83;11.02;;;17.10;99.90;;;;;;4991964;28;20391;-50
2022/08/30 05:37:36;;;;;;;14.60;10.40;;;17.10;99.90;;;;;;4991917;28;20038;-50
2022/08/30 05:40:04;;;;;;;16.42;10.15;;;17.00;99.90;;;;;;4991922;28;20033;-50
2022/08/30 05:42:30;;;;;;;16.70;9.80;;;17.10;99.90;;;;;;4992070;28;20030;-49
2022/08/30 05:44:55;;;;;;;15.77;9.57;;;17.30;99.90;;;;;;4991896;28;20026;-50
2022/08/30 05:47:21;;;;;;;14.48;9.60;;;17.30;99.90;;;;;;4991730;28;20546;-49
2022/08/30 05:49:48;;;;;;;15.88;9.90;;;17.40;99.90;;;;;;4991677;28;20108;-49
2022/08/30 05:52:16;;;;;;;11.65;9.23;;;17.50;99.90;;;;;;4991432;28;20113;-49
2022/08/30 05:54:43;;;;;;;14.10;9.63;;;17.50;99.90;;;;;;4991682;28;20030;-49
2022/08/30 05:57:08;;;;;;;17.55;9.68;;;17.70;99.90;;;;;;4991369;28;20086;-50
2022/08/30 05:59:34;;;;;;;16.52;9.13;;;17.70;99.90;;;;;;4991815;28;20125;-49
2022/08/30 06:02:00;;;;;;;15.57;9.88;;;17.80;99.90;;;;;;4991370;28;20570;-49
2022/08/30 06:04:25;;;;;;;14.80;9.73;;;17.80;99.90;;;;;;4990259;28;20050;-50
2022/08/30 06:06:51;;;;;;;15.40;9.02;;;17.90;99.90;;;;;;4989488;28;20022;-49
2022/08/30 06:09:17;;;;;;;13.32;9.48;;;18.00;99.90;;;;;;4988912;28;20488;-50
2022/08/30 06:11:44;;;;;;;15.80;9.77;;;18.10;99.90;;;;;;4988258;28;20506;-51
2022/08/30 06:14:10;;;;;;;15.00;9.55;;;18.10;99.90;;;;;;4989388;28;20507;-50
2022/08/30 06:16:38;;;;;;;15.32;9.20;;;18.20;99.90;;;;;;4988892;28;20039;-50
2022/08/30 06:19:07;;;;;;;16.63;9.23;;;18.30;99.90;;;;;;4991407;28;20522;-50
2022/08/30 06:21:35;;;;;;;12.23;9.48;;;18.40;99.90;;;;;;4988476;28;20376;-50
2022/08/30 06:24:02;;;;;;;14.00;9.00;;;18.50;99.90;;;;;;4990954;28;20121;-50
2022/08/30 06:26:29;;;;;;;14.48;9.48;;;18.60;99.90;;;;;;4986019;28;20030;-50
2022/08/30 06:28:56;;;;;;;15.48;8.95;;;18.70;99.90;;;;;;4988331;28;20028;-51
2022/08/30 06:31:23;;;;;;;18.70;9.68;;;18.50;99.90;;;;;;4989290;28;20117;-50
2022/08/30 06:33:49;;;;;;;15.18;10.02;;;18.50;99.90;;;;;;4986624;28;20031;-49
2022/08/30 06:36:19;;;;;;;14.88;10.48;;;18.50;99.90;;;;;;4983737;28;20928;-50
2022/08/30 06:38:46;;;;;;;15.60;10.00;;;18.60;99.90;;;;;;4982588;28;20022;-50
2022/08/30 06:41:15;;;;;;;18.80;10.38;;;18.50;99.90;;;;;;4989824;28;20427;-50
2022/08/30 06:43:42;;;;;;;14.10;10.02;;;18.60;99.90;;;;;;4992542;28;20078;-51
2022/08/30 06:46:10;;;;;;;15.85;9.88;;;18.50;99.90;;;;;;4988678;28;20423;-50
2022/08/30 06:48:36;;;;;;;15.75;9.95;;;18.70;99.90;;;;;;4990768;28;20101;-49
2022/08/30 06:51:02;;;;;;;15.32;9.77;;;18.80;99.90;;;;;;4991507;28;20133;-50
2022/08/30 06:53:29;;;;;;;14.90;9.38;;;18.80;99.90;;;;;;4992331;28;20479;-50
2022/08/30 06:56:07;;;;;;;20.58;10.30;;;18.90;99.90;;;;;;4990314;28;20491;-51
2022/08/30 06:58:35;;;;;;;11.52;9.43;;;18.90;99.90;;;;;;4988102;28;20499;-50
2022/08/30 07:01:00;;;;;;;13.27;10.05;;;19.00;99.90;;;;;;4984097;28;20026;-50
2022/08/30 07:03:26;;;;;;;12.73;9.55;;;19.20;99.90;;;;;;4986704;28;20049;-50
2022/08/30 07:05:54;;;;;;;13.70;9.55;;;19.40;99.90;;;;;;4992289;28;20029;-50
2022/08/30 07:08:20;;;;;;;15.68;9.18;;;19.60;99.90;;;;;;4993975;28;20027;-50
2022/08/30 07:10:45;;;;;;;13.35;9.60;;;19.70;99.90;;;;;;4992690;28;20046;-49
2022/08/30 07:13:12;;;;;;;13.93;9.07;;;19.70;99.90;;;;;;4992314;28;20081;-50
2022/08/30 07:15:41;;;;;;;11.55;8.93;;;19.70;99.90;;;;;;4985077;28;20042;-50
2022/08/30 07:20:52;;;;;;;13.60;9.75;;;19.60;99.90;;;;;;4993578;28;20036;-51
2022/08/30 07:23:17;;;;;;;19.80;9.48;;;19.90;99.90;;;;;;4992250;28;20030;-50
2022/08/30 07:25:43;;;;;;;14.80;9.00;;;20.00;99.90;;;;;;4993353;28;20033;-50
2022/08/30 07:28:09;;;;;;;18.70;9.30;;;20.10;99.90;;;;;;4991657;28;20038;-50
2022/08/30 07:30:36;;;;;;;15.10;9.00;;;20.10;99.90;;;;;;4993632;28;20383;-50
2022/08/30 07:33:02;;;;;;;12.20;8.80;;;20.50;99.90;;;;;;4992898;28;20045;-50
2022/08/30 07:35:27;;;;;;;12.20;8.63;;;20.90;99.90;;;;;;4991999;28;20031;-50
2022/08/30 07:37:53;;;;;;;15.27;8.93;;;21.50;99.90;;;;;;4992345;28;20105;-51
2022/08/30 07:40:19;;;;;;;11.30;8.18;;;21.50;99.90;;;;;;4990554;28;20034;-50
2022/08/30 07:42:45;;;;;;;15.65;8.98;;;21.40;99.90;;;;;;4983358;28;20399;-50
2022/08/30 07:45:11;;;;;;;15.65;8.77;;;21.40;99.90;;;;;;4985870;28;20022;-50
2022/08/30 07:47:37;;;;;;;12.52;8.25;;;21.30;99.90;;;;;;4989583;28;20033;-51
2022/08/30 07:50:05;;;;;;;13.60;8.40;;;21.70;99.90;;;;;;4988893;28;20386;-50
2022/08/30 07:52:30;;;;;;;15.98;8.10;;;22.30;99.90;;;;;;4987330;28;20125;-50
2022/08/30 07:54:58;;;;;;;12.55;8.18;;;22.70;99.90;;;;;;4990077;28;20101;-50
2022/08/30 07:57:24;;;;;;;12.00;7.55;;;22.90;99.90;;;;;;4983483;28;20060;-51
2022/08/30 07:59:50;;;;;;;10.73;7.60;;;23.30;99.90;;;;;;4988924;28;20380;-50
2022/08/30 08:02:17;;;;;;;9.93;7.38;;;23.70;99.90;;;;;;4985613;28;20042;-50
2022/08/30 08:04:42;;;;;;;12.80;7.40;;;23.90;99.90;;;;;;4987552;28;20042;-50
2022/08/30 08:07:08;;;;;;;8.82;6.22;;;24.30;99.90;;;;;;4990874;28;20026;-51
2022/08/30 08:09:35;;;;;;;13.80;7.03;;;24.90;99.90;;;;;;4984784;28;20038;-51
2022/08/30 08:12:04;;;;;;;14.20;6.88;;;25.40;99.90;;;;;;4986159;28;20053;-50
2022/08/30 08:14:30;;;;;;;14.38;6.68;;;25.70;99.90;;;;;;4986316;28;20030;-50
2022/08/30 08:16:56;;;;;;;12.75;6.70;;;25.70;99.90;;;;;;4989000;28;20033;-50
2022/08/30 08:19:22;;;;;;;8.80;6.50;;;25.50;99.90;;;;;;4989517;28;20022;-50
2022/08/30 08:21:48;;;;;;;9.30;6.20;;;25.40;99.90;;;;;;4990214;28;20030;-51
2022/08/30 08:24:15;;;;;;;10.40;6.25;;;25.50;99.90;;;;;;4988560;28;20045;-50
2022/08/30 08:26:41;;;;;;;10.25;6.60;;;25.70;99.90;;;;;;4990307;28;20387;-50
2022/08/30 08:29:08;;;;;;;18.80;7.00;;;25.30;99.90;;;;;;4983739;28;20034;-51
2022/08/30 08:31:35;;;;;;;12.32;7.05;;;25.30;99.90;;;;;;4991297;28;20030;-51
2022/08/30 08:34:04;;;;;;;13.50;6.72;;;24.80;99.90;;;;;;4988618;28;20034;-50
2022/08/30 08:36:30;;;;;;;8.45;5.90;;;25.20;99.90;;;;;;4988234;28;20061;-51
2022/08/30 08:38:57;;;;;;;12.48;7.00;;;25.60;99.90;;;;;;4985228;28;20477;-50
2022/08/30 08:41:49;;;;;;;12.77;6.78;;;24.90;99.90;;;;;;4985698;28;20056;-51
2022/08/30 08:44:39;;;;;;;10.00;5.70;;;25.00;99.90;;;;;;4980589;28;20394;-51
2022/08/30 08:47:05;;;;;;;9.63;5.90;;;25.60;99.90;;;;;;4988838;28;20045;-51
2022/08/30 08:49:34;;;;;;;10.40;6.15;;;26.10;99.90;;;;;;4987544;28;20384;-51
2022/08/30 08:55:06;;;;;;;8.52;5.68;;;27.30;99.90;;;;;;4990109;28;20049;-51
2022/08/30 08:57:34;;;;;;;12.75;5.18;;;27.60;99.90;;;;;;4986453;28;20133;-51
2022/08/30 09:00:00;;;;;;;10.35;5.72;;;27.80;99.90;;;;;;4984930;28;20030;-50
2022/08/30 09:02:32;;;;;;;10.48;5.22;;;28.20;98.70;;;;;;4987997;28;20375;-50
2022/08/30 09:05:01;;;;;;;11.35;5.40;;;28.10;97.90;;;;;;4985556;28;20073;-51
2022/08/30 09:07:32;;;;;;;9.10;5.40;;;28.00;98.30;;;;;;4987067;28;20085;-50
2022/08/30 09:09:59;;;;;;;7.95;5.13;;;27.70;97.80;;;;;;4985374;28;20102;-51
2022/08/30 09:12:26;;;;;;;11.02;5.05;;;27.80;98.30;;;;;;4989670;28;20030;-51
2022/08/30 09:15:02;;;;;;;10.70;4.63;;;27.90;97.70;;;;;;4986591;28;20033;-51
2022/08/30 09:17:28;;;;;;;6.97;4.90;;;28.10;97.60;;;;;;4984754;28;20472;-51
2022/08/30 09:19:54;;;;;;;7.60;4.40;;;28.00;97.30;;;;;;4988929;28;20041;-51
2022/08/30 09:22:36;;;;;;;13.15;5.15;;;27.90;97.20;;;;;;4987375;28;20035;-51
2022/08/30 09:25:07;;;;;;;8.88;5.07;;;28.10;96.50;;;;;;4990977;28;20038;-51
2022/08/30 09:27:44;;;;;;;9.35;4.70;;;28.30;95.50;;;;;;4987455;28;20066;-52
2022/08/30 09:30:21;;;;;;;6.43;4.18;;;28.00;96.00;;;;;;4984202;28;20034;-51
2022/08/30 09:33:00;;;;;;;9.77;5.20;;;28.10;97.10;;;;;;4987633;28;20069;-52
2022/08/30 09:35:39;;;;;;;13.38;4.25;;;28.60;95.80;;;;;;4987383;28;20430;-52
2022/08/30 09:38:21;;;;;;;10.70;4.57;;;29.30;94.60;;;;;;4986086;28;20034;-52
2022/08/30 09:40:49;;;;;;;10.32;4.97;;;29.60;93.30;;;;;;4987073;28;20031;-52
2022/08/30 09:43:15;;;;;;;8.13;4.10;;;29.40;93.20;;;;;;4986267;28;20352;-52
2022/08/30 09:46:03;;;;;;;12.00;4.47;;;29.30;93.20;;;;;;4983869;28;20028;-51
2022/08/30 09:48:31;;;;;;;7.85;4.15;;;28.60;93.60;;;;;;4985088;28;20416;-52
2022/08/30 09:51:09;;;;;;;6.05;3.70;;;28.30;95.10;;;;;;4984419;28;20030;-53
2022/08/30 09:54:10;;;;;;;8.88;4.05;;;28.30;95.30;;;;;;4987188;28;20486;-50
2022/08/30 09:56:59;;;;;;;7.35;3.90;;;28.60;94.60;;;;;;4988077;28;20050;-50
2022/08/30 09:59:44;;;;;;;6.88;3.88;;;28.70;93.90;;;;;;4988325;28;20037;-53
2022/08/30 10:02:34;;;;;;;7.88;3.85;;;28.80;94.00;;;;;;4992287;28;20049;-52
2022/08/30 10:05:19;;;;;;;9.13;4.07;;;28.90;93.70;;;;;;4988992;28;20031;-52
2022/08/30 10:07:44;;;;;;;8.30;4.35;;;29.00;92.80;;;;;;4989722;28;20034;-52
2022/08/30 10:10:21;;;;;;;10.07;4.35;;;28.70;92.70;;;;;;4982647;28;20026;-51
2022/08/30 10:13:00;;;;;;;8.02;3.72;;;28.40;93.20;;;;;;4985332;28;20562;-52
2022/08/30 10:15:43;;;;;;;9.60;4.32;;;28.00;94.10;;;;;;4987307;28;20106;-52
2022/08/30 10:18:20;;;;;;;11.23;4.03;;;27.90;94.40;;;;;;4991951;28;20064;-51
2022/08/30 10:21:14;;;;;;;10.68;3.88;;;27.90;94.50;;;;;;4991453;28;20038;-51
2022/08/30 10:23:50;;;;;;;8.30;3.80;;;27.80;94.50;;;;;;4989773;28;20037;-51
2022/08/30 10:26:48;;;;;;;8.55;3.70;;;27.50;94.10;;;;;;4989451;28;20110;-52
2022/08/30 10:29:22;;;;;;;16.13;4.22;;;27.10;95.00;;;;;;4983763;28;20030;-51
2022/08/30 10:32:14;;;;;;;10.50;4.15;;;27.10;95.70;;;;;;4990302;28;20404;-52
2022/08/30 10:34:49;;;;;;;8.00;3.37;;;26.70;95.80;;;;;;4986131;28;20032;-50
2022/08/30 10:37:24;;;;;;;9.98;3.67;;;26.60;96.80;;;;;;4991946;28;20631;-49
2022/08/30 10:41:11;;;;;;;6.82;3.20;;;28.00;94.40;;;;;;4991214;28;20053;-50
2022/08/30 10:42:49;;;;;;;10.70;3.70;;;28.70;92.60;;;;;;4994031;28;20034;-53
2022/08/30 10:45:17;;;;;;;8.18;3.70;;;29.40;91.30;;;;;;4991564;28;20034;-52
2022/08/30 10:47:59;;;;;;;7.15;3.70;;;29.50;90.40;;;;;;4992654;28;20060;-52
2022/08/30 10:50:30;;;;;;;9.07;2.72;;;29.30;90.80;;;;;;4993661;28;20033;-52
2022/08/30 10:53:04;;;;;;;9.35;3.35;;;29.40;90.80;;;;;;4989941;28;20069;-52
2022/08/30 10:55:36;;;;;;;8.30;3.70;;;29.70;89.50;;;;;;4993332;28;20045;-52
2022/08/30 10:58:05;;;;;;;5.90;3.33;;;29.70;89.00;;;;;;4994314;28;20027;-51
2022/08/30 11:00:41;;;;;;;5.90;3.60;;;29.80;89.30;;;;;;4993424;28;20030;-52
2022/08/30 11:03:35;;;;;;;8.13;3.90;;;29.60;89.20;;;;;;4991588;28;20035;-52
2022/08/30 11:06:23;;;;;;;7.53;3.28;;;30.40;86.80;;;;;;4983584;28;20034;-52
2022/08/30 11:08:58;;;;;;;11.55;3.40;;;30.90;84.80;;;;;;4986220;28;20034;-52
2022/08/30 11:11:44;;;;;;;6.70;3.42;;;30.40;85.20;;;;;;4988349;28;20041;-52
2022/08/30 11:14:15;;;;;;;7.82;3.35;;;30.20;86.10;;;;;;4985091;28;20064;-52
2022/08/30 11:16:44;;;;;;;6.40;3.08;;;30.00;85.60;;;;;;4987818;28;20052;-51
2022/08/30 11:19:25;;;;;;;8.80;2.80;;;30.20;86.40;;;;;;4988177;28;20465;-52
2022/08/30 11:21:52;;;;;;;8.05;3.30;;;31.40;81.90;;;;;;4990275;28;20044;-51
2022/08/30 11:24:22;;;;;;;10.07;3.03;;;32.20;77.50;;;;;;4985641;28;20077;-52
2022/08/30 11:26:50;;;;;;;6.20;3.00;;;31.50;77.50;;;;;;4989498;28;20109;-52
2022/08/30 11:29:43;;;;;;;5.65;3.20;;;30.40;81.30;;;;;;4988745;28;20038;-51
2022/08/30 11:32:12;;;;;;;5.32;3.03;;;29.60;83.60;;;;;;4989980;28;20033;-52
2022/08/30 11:34:46;;;;;;;5.40;3.40;;;29.30;85.50;;;;;;4989782;28;20172;-52
2022/08/30 11:37:20;;;;;;;11.95;3.45;;;28.80;87.90;;;;;;4988631;28;20034;-52
2022/08/30 11:39:46;;;;;;;5.95;3.10;;;28.70;88.80;;;;;;4986754;28;20041;-52
2022/08/30 11:42:27;;;;;;;4.75;2.70;;;29.50;86.60;;;;;;4986646;28;20235;-52
2022/08/30 11:45:23;;;;;;;8.20;3.33;;;30.30;84.60;;;;;;4983875;28;20034;-52
2022/08/30 11:47:50;;;;;;;9.95;3.33;;;30.50;82.60;;;;;;4979748;28;20129;-52
2022/08/30 11:50:44;;;;;;;5.93;2.55;;;30.20;83.80;;;;;;4986372;28;20034;-53
2022/08/30 11:53:27;;;;;;;9.75;3.08;;;29.80;84.30;;;;;;4990757;28;20534;-53
2022/08/30 11:56:41;;;;;;;9.27;3.42;;;29.40;85.60;;;;;;4987747;28;20050;-54
2022/08/30 11:59:21;;;;;;;9.32;2.70;;;29.40;85.20;;;;;;4984943;28;20038;-53
2022/08/30 12:01:50;;;;;;;9.40;3.42;;;29.10;85.80;;;;;;4988017;28;20042;-54
2022/08/30 12:04:15;;;;;;;7.13;2.78;;;29.60;83.50;;;;;;4987472;28;20041;-53
2022/08/30 12:06:43;;;;;;;6.88;2.80;;;30.30;82.70;;;;;;4988276;28;20030;-53
2022/08/30 12:09:37;;;;;;;5.97;3.10;;;31.10;80.20;;;;;;4987471;28;20030;-53
2022/08/30 12:12:29;;;;;;;7.57;3.05;;;31.40;80.20;;;;;;4982208;28;20038;-53
2022/08/30 12:14:56;;;;;;;9.98;2.95;;;32.10;77.90;;;;;;4981920;28;20501;-52
2022/08/30 12:20:37;;;;;;;9.25;3.13;;;33.10;75.40;;;;;;4982997;28;20041;-54
2022/08/30 12:23:26;;;;;;;8.10;2.90;;;32.70;73.90;;;;;;4989260;28;20070;-54
2022/08/30 12:26:13;;;;;;;6.40;3.05;;;32.30;75.00;;;;;;4982040;28;20447;-54
2022/08/30 12:28:39;;;;;;;8.05;3.28;;;32.80;73.80;;;;;;4988226;28;20030;-54
2022/08/30 12:31:08;;;;;;;6.75;3.00;;;33.40;73.00;;;;;;4986995;28;20391;-54
2022/08/30 12:33:41;;;;;;;9.38;2.90;;;33.60;71.60;;;;;;4987902;28;20443;-54
2022/08/30 12:36:32;;;;;;;9.73;2.88;;;34.30;70.00;;;;;;4980190;28;20022;-54
2022/08/30 12:39:26;;;;;;;9.40;2.90;;;34.10;69.70;;;;;;4988948;28;20041;-54
2022/08/30 12:41:52;;;;;;;10.02;3.17;;;35.30;67.60;;;;;;4991122;28;20852;-54
2022/08/30 12:44:27;;;;;;;7.00;3.45;;;34.30;67.50;;;;;;4987381;28;20038;-54
2022/08/30 12:46:58;;;;;;;7.95;3.50;;;33.70;69.20;;;;;;4986185;28;20034;-54
2022/08/30 12:49:26;;;;;;;7.93;3.40;;;32.90;70.40;;;;;;4990329;28;20052;-53
2022/08/30 12:51:53;;;;;;;8.40;3.65;;;32.50;71.50;;;;;;4985810;28;20042;-53
2022/08/30 12:54:24;;;;;;;9.20;3.33;;;32.70;71.10;;;;;;4989055;28;20065;-54
2022/08/30 12:56:54;;;;;;;6.65;2.83;;;32.80;71.00;;;;;;4987282;28;20053;-55
2022/08/30 12:59:49;;;;;;;8.15;3.22;;;33.10;70.60;;;;;;4990988;28;20034;-53